createdAt,value
2022-07-26T00:00:12.800Z,57.94
2022-07-26T00:02:47.809Z,58.26
2022-07-26T00:05:18.720Z,58.94
2022-07-26T00:07:48.421Z,58.90
2022-07-26T00:10:17.009Z,58.38
2022-07-26T00:12:44.799Z,59.27
2022-07-26T00:15:14.307Z,60.37
2022-07-26T00:17:43.805Z,60.13
2022-07-26T00:20:12.381Z,59.39
2022-07-26T00:22:41.799Z,60.42
2022-07-26T00:25:10.559Z,60.35
2022-07-26T00:27:39.093Z,61.21
2022-07-26T00:30:10.615Z,60.95
2022-07-26T00:32:38.991Z,59.88
2022-07-26T00:35:07.995Z,59.91
2022-07-26T00:37:38.483Z,61.43
2022-07-26T00:40:09.588Z,62.96
2022-07-26T00:42:37.904Z,62.85
2022-07-26T00:45:09.963Z,62.99
2022-07-26T00:47:38.952Z,60.41
2022-07-26T00:50:14.624Z,58.84
2022-07-26T00:52:46.036Z,59.27
2022-07-26T00:55:15.933Z,60.60
2022-07-26T00:57:45.867Z,61.01
2022-07-26T01:00:22.248Z,60.95
2022-07-26T01:02:50.301Z,60.91
2022-07-26T01:05:18.315Z,61.15
2022-07-26T01:07:49.982Z,60.06
2022-07-26T01:10:18.479Z,60.67
2022-07-26T01:12:47.259Z,61.12
2022-07-26T01:15:17.254Z,61.46
2022-07-26T01:17:47.556Z,61.59
2022-07-26T01:20:16.749Z,61.50
2022-07-26T01:22:44.586Z,60.56
2022-07-26T01:25:13.110Z,60.11
2022-07-26T01:27:41.159Z,60.64
2022-07-26T01:30:12.717Z,60.64
2022-07-26T01:32:41.541Z,60.76
2022-07-26T01:35:11.004Z,60.12
2022-07-26T01:37:39.635Z,60.43
2022-07-26T01:40:10.434Z,61.44
2022-07-26T01:42:41.140Z,61.09
2022-07-26T01:45:12.286Z,60.59
2022-07-26T01:47:41.027Z,62.45
2022-07-26T01:50:10.579Z,62.82
2022-07-26T01:52:39.449Z,63.10
2022-07-26T01:55:08.670Z,63.64
2022-07-26T01:57:36.513Z,63.71
2022-07-26T02:00:07.938Z,64.41
2022-07-26T02:02:37.021Z,64.41
2022-07-26T02:05:08.206Z,64.47
2022-07-26T02:07:44.615Z,64.03
2022-07-26T02:10:14.845Z,63.11
2022-07-26T02:12:43.780Z,62.81
2022-07-26T02:15:14.868Z,62.32
2022-07-26T02:17:44.749Z,62.50
2022-07-26T02:20:17.060Z,62.50
2022-07-26T02:22:44.885Z,61.75
2022-07-26T02:25:13.414Z,60.33
2022-07-26T02:27:41.191Z,60.85
2022-07-26T02:30:10.162Z,59.29
2022-07-26T02:32:37.922Z,59.63
2022-07-26T02:35:07.075Z,61.87
2022-07-26T02:37:37.570Z,61.10
2022-07-26T02:40:18.794Z,61.91
2022-07-26T02:42:47.730Z,61.49
2022-07-26T02:45:16.381Z,62.02
2022-07-26T02:47:49.850Z,61.73
2022-07-26T02:50:21.495Z,61.96
2022-07-26T02:52:51.166Z,63.40
2022-07-26T02:55:25.311Z,64.00
2022-07-26T02:57:53.317Z,63.86
2022-07-26T03:00:26.545Z,62.49
2022-07-26T03:02:54.897Z,63.99
2022-07-26T03:05:24.025Z,63.73
2022-07-26T03:07:52.696Z,63.22
2022-07-26T03:10:20.696Z,62.59
2022-07-26T03:12:48.529Z,63.11
2022-07-26T03:15:16.296Z,63.10
2022-07-26T03:17:44.093Z,63.61
2022-07-26T03:20:12.965Z,62.66
2022-07-26T03:22:41.695Z,63.36
2022-07-26T03:25:10.607Z,63.62
2022-07-26T03:27:39.258Z,62.97
2022-07-26T03:30:09.757Z,63.35
2022-07-26T03:32:37.846Z,62.88
2022-07-26T03:35:08.233Z,61.52
2022-07-26T03:37:44.856Z,62.66
2022-07-26T03:40:16.786Z,63.41
2022-07-26T03:42:47.954Z,63.15
2022-07-26T03:45:17.299Z,63.07
2022-07-26T03:47:46.570Z,62.72
2022-07-26T03:50:15.244Z,62.68
2022-07-26T03:52:43.922Z,63.61
2022-07-26T03:55:30.940Z,62.84
2022-07-26T03:57:59.695Z,63.46
2022-07-26T04:00:27.720Z,62.57
2022-07-26T04:02:56.533Z,61.86
2022-07-26T04:05:26.267Z,61.83
2022-07-26T04:07:55.902Z,60.08
2022-07-26T04:10:24.742Z,59.37
2022-07-26T04:12:53.411Z,58.85
2022-07-26T04:15:21.710Z,59.83
2022-07-26T04:17:49.628Z,57.90
2022-07-26T04:20:17.678Z,57.40
2022-07-26T04:22:45.461Z,58.01
2022-07-26T04:25:14.152Z,57.59
2022-07-26T04:27:41.943Z,56.43
2022-07-26T04:30:15.054Z,56.52
2022-07-26T04:32:45.862Z,55.36
2022-07-26T04:35:16.468Z,54.97
2022-07-26T04:37:46.899Z,54.58
2022-07-26T04:40:23.726Z,54.64
2022-07-26T04:42:52.766Z,54.63
2022-07-26T04:45:22.066Z,53.68
2022-07-26T04:47:52.040Z,54.06
2022-07-26T04:50:24.755Z,53.59
2022-07-26T04:52:54.270Z,53.42
2022-07-26T04:55:23.733Z,52.57
2022-07-26T04:57:52.864Z,53.02
2022-07-26T05:00:26.021Z,54.33
2022-07-26T05:02:58.802Z,52.68
2022-07-26T05:05:32.711Z,52.40
2022-07-26T05:08:03.968Z,53.06
2022-07-26T05:10:38.311Z,52.52
2022-07-26T05:13:07.930Z,51.59
2022-07-26T05:15:37.082Z,51.00
2022-07-26T05:18:10.599Z,51.53
2022-07-26T05:20:39.552Z,50.04
2022-07-26T05:23:08.598Z,48.71
2022-07-26T05:25:38.023Z,47.82
2022-07-26T05:28:06.649Z,46.96
2022-07-26T05:30:35.233Z,46.29
2022-07-26T05:33:04.006Z,46.79
2022-07-26T05:35:32.615Z,47.36
2022-07-26T05:38:01.219Z,47.72
2022-07-26T05:40:29.846Z,47.96
2022-07-26T05:42:58.484Z,47.17
2022-07-26T05:45:27.223Z,47.42
2022-07-26T05:47:56.003Z,48.29
2022-07-26T05:50:24.626Z,45.97
2022-07-26T05:52:53.268Z,44.69
2022-07-26T05:55:22.715Z,44.78
2022-07-26T05:57:51.283Z,44.66
2022-07-26T06:00:21.010Z,45.60
2022-07-26T06:02:49.600Z,45.51
2022-07-26T06:05:18.452Z,45.93
2022-07-26T06:07:46.918Z,44.69
2022-07-26T06:10:15.600Z,44.79
2022-07-26T06:12:44.178Z,44.12
2022-07-26T06:15:15.343Z,43.30
2022-07-26T06:17:44.543Z,42.77
2022-07-26T06:20:13.371Z,42.31
2022-07-26T06:22:41.927Z,41.57
2022-07-26T06:25:10.697Z,40.08
2022-07-26T06:27:39.201Z,39.80
2022-07-26T06:30:09.667Z,39.45
2022-07-26T06:32:38.224Z,38.53
2022-07-26T06:35:07.329Z,38.40
2022-07-26T06:37:38.590Z,36.84
2022-07-26T06:40:09.887Z,37.00
2022-07-26T06:42:39.596Z,37.74
2022-07-26T06:45:09.086Z,38.33
2022-07-26T06:47:38.206Z,38.67
2022-07-26T06:50:08.162Z,38.33
2022-07-26T06:52:36.843Z,37.11
2022-07-26T06:55:07.352Z,36.20
2022-07-26T06:57:40.364Z,35.67
2022-07-26T07:00:19.337Z,35.50
2022-07-26T07:02:48.045Z,34.78
2022-07-26T07:05:16.806Z,33.91
2022-07-26T07:07:46.077Z,32.73
2022-07-26T07:10:14.966Z,32.25
2022-07-26T07:12:45.037Z,32.47
2022-07-26T07:15:14.044Z,32.18
2022-07-26T07:17:42.637Z,32.24
2022-07-26T07:20:12.513Z,31.70
2022-07-26T07:22:41.119Z,31.39
2022-07-26T07:25:09.873Z,31.35
2022-07-26T07:27:39.299Z,31.35
2022-07-26T07:30:11.001Z,31.55
2022-07-26T07:32:40.119Z,31.59
2022-07-26T07:35:12.699Z,31.24
2022-07-26T07:37:53.784Z,31.49
2022-07-26T07:40:23.281Z,31.22
2022-07-26T07:42:53.522Z,31.26
2022-07-26T07:45:22.158Z,30.72
2022-07-26T07:47:50.683Z,31.58
2022-07-26T07:50:19.258Z,31.46
2022-07-26T07:52:47.773Z,31.39
2022-07-26T07:55:36.378Z,32.40
2022-07-26T07:58:05.966Z,31.77
2022-07-26T08:00:34.665Z,33.63
2022-07-26T08:03:03.280Z,33.04
2022-07-26T08:05:32.705Z,33.26
2022-07-26T08:08:03.547Z,33.27
2022-07-26T08:10:32.427Z,33.13
2022-07-26T08:13:00.862Z,33.46
2022-07-26T08:15:29.978Z,32.44
2022-07-26T08:17:59.478Z,33.50
2022-07-26T08:20:28.814Z,32.53
2022-07-26T08:22:59.581Z,32.24
2022-07-26T08:25:28.519Z,32.72
2022-07-26T08:28:04.294Z,31.61
2022-07-26T08:30:34.761Z,32.52
2022-07-26T08:33:03.585Z,32.74
2022-07-26T08:35:32.222Z,32.50
2022-07-26T08:38:02.031Z,32.58
2022-07-26T08:40:30.561Z,31.55
2022-07-26T08:43:00.204Z,31.55
2022-07-26T08:45:31.655Z,31.28
2022-07-26T08:48:18.600Z,32.55
2022-07-26T08:50:49.216Z,32.85
2022-07-26T08:53:17.814Z,32.01
2022-07-26T08:56:05.856Z,32.64
2022-07-26T08:58:40.911Z,33.33
2022-07-26T09:01:13.301Z,34.10
2022-07-26T09:03:46.420Z,33.08
2022-07-26T09:06:26.374Z,33.70
2022-07-26T09:09:14.704Z,34.65
2022-07-26T09:11:43.256Z,33.89
2022-07-26T09:14:11.862Z,33.26
2022-07-26T09:16:41.407Z,34.71
2022-07-26T09:19:23.688Z,34.47
2022-07-26T09:21:57.895Z,34.46
2022-07-26T09:24:45.122Z,35.27
2022-07-26T09:27:18.165Z,34.81
2022-07-26T09:29:55.014Z,34.18
2022-07-26T09:32:26.897Z,33.27
2022-07-26T09:35:45.766Z,33.19
2022-07-26T09:38:16.636Z,32.91
2022-07-26T09:40:50.614Z,33.29
2022-07-26T09:43:24.447Z,32.71
2022-07-26T09:46:11.893Z,34.01
2022-07-26T09:49:08.046Z,34.86
2022-07-26T09:51:43.417Z,34.13
2022-07-26T09:54:29.919Z,34.39
2022-07-26T09:56:59.374Z,33.91
2022-07-26T09:59:29.527Z,34.37
2022-07-26T10:02:02.371Z,35.48
2022-07-26T10:04:31.691Z,35.87
2022-07-26T10:07:02.100Z,35.81
2022-07-26T10:10:24.449Z,36.46
2022-07-26T10:12:53.875Z,36.90
2022-07-26T10:15:48.653Z,39.09
2022-07-26T10:18:40.712Z,39.10
2022-07-26T10:21:29.973Z,39.72
2022-07-26T10:24:03.821Z,40.34
2022-07-26T10:26:32.256Z,41.57
2022-07-26T10:29:25.805Z,40.38
2022-07-26T10:32:14.195Z,41.74
2022-07-26T10:34:42.961Z,41.79
2022-07-26T10:37:24.700Z,40.64
2022-07-26T10:40:25.374Z,41.64
2022-07-26T10:42:53.959Z,43.34
2022-07-26T10:45:24.136Z,43.64
2022-07-26T10:48:15.329Z,44.11
2022-07-26T10:50:51.229Z,43.99
2022-07-26T10:53:26.181Z,44.30
2022-07-26T10:56:01.605Z,45.40
2022-07-26T10:58:44.258Z,45.37
2022-07-26T11:01:13.912Z,46.29
2022-07-26T11:03:45.216Z,47.96
2022-07-26T11:06:19.656Z,48.34
2022-07-26T11:08:49.380Z,49.85
2022-07-26T11:11:32.113Z,50.54
2022-07-26T11:14:15.106Z,50.41
2022-07-26T11:16:52.786Z,51.57
2022-07-26T11:19:25.338Z,55.02
2022-07-26T11:22:00.495Z,56.66
2022-07-26T11:24:29.620Z,58.64
2022-07-26T11:27:04.442Z,60.89
2022-07-26T11:29:38.463Z,61.83
2022-07-26T11:32:23.699Z,64.88
2022-07-26T11:35:04.400Z,66.57
2022-07-26T11:37:33.195Z,68.34
2022-07-26T11:40:01.849Z,72.21
2022-07-26T11:42:30.472Z,74.31
2022-07-26T11:44:59.231Z,77.26
2022-07-26T11:47:27.909Z,78.18
2022-07-26T11:50:16.845Z,78.23
2022-07-26T11:52:45.136Z,78.39
2022-07-26T11:55:14.634Z,79.78
2022-07-26T11:57:43.388Z,81.35
2022-07-26T12:00:13.720Z,81.13
2022-07-26T12:02:42.276Z,81.47
2022-07-26T12:05:23.126Z,80.57
2022-07-26T12:08:05.295Z,79.23
2022-07-26T12:10:34.249Z,78.71
2022-07-26T12:13:15.880Z,78.30
2022-07-26T12:15:52.026Z,76.31
2022-07-26T12:18:30.835Z,75.72
2022-07-26T12:21:08.973Z,74.62
2022-07-26T12:23:50.010Z,74.23
2022-07-26T12:26:26.539Z,72.96
2022-07-26T12:28:57.549Z,71.86
2022-07-26T12:31:33.155Z,70.96
2022-07-26T12:34:01.982Z,68.33
2022-07-26T12:36:35.286Z,66.95
2022-07-26T12:39:06.087Z,66.90
2022-07-26T12:41:39.518Z,66.39
2022-07-26T12:44:12.673Z,67.61
2022-07-26T12:46:41.673Z,66.82
2022-07-26T12:49:10.364Z,67.44
2022-07-26T12:51:39.065Z,66.56
2022-07-26T12:54:08.002Z,66.52
2022-07-26T12:56:36.840Z,67.91
2022-07-26T12:59:05.344Z,67.73
2022-07-26T13:01:34.129Z,67.88
2022-07-26T13:04:03.054Z,67.85
2022-07-26T13:06:33.057Z,66.26
2022-07-26T13:09:01.762Z,66.87
2022-07-26T13:11:30.929Z,67.60
2022-07-26T13:13:59.417Z,65.91
2022-07-26T13:16:28.424Z,65.77
2022-07-26T13:18:56.994Z,63.74
2022-07-26T13:21:25.524Z,62.89
2022-07-26T13:24:02.744Z,63.00
2022-07-26T13:26:31.275Z,62.00
2022-07-26T13:28:59.986Z,61.57
2022-07-26T13:31:28.725Z,60.17
2022-07-26T13:33:57.265Z,59.59
2022-07-26T13:36:25.881Z,58.27
2022-07-26T13:38:56.384Z,57.24
2022-07-26T13:41:25.036Z,56.80
2022-07-26T13:43:54.286Z,56.87
2022-07-26T13:46:24.084Z,56.91
2022-07-26T13:49:00.888Z,57.83
2022-07-26T13:51:53.404Z,57.25
2022-07-26T13:54:32.213Z,58.44
2022-07-26T13:57:04.546Z,58.69
2022-07-26T13:59:33.168Z,59.73
2022-07-26T14:02:05.358Z,59.07
2022-07-26T14:04:34.660Z,60.72
2022-07-26T14:07:03.335Z,60.15
2022-07-26T14:09:31.929Z,59.55
2022-07-26T14:12:00.814Z,59.71
2022-07-26T14:14:29.436Z,60.62
2022-07-26T14:16:58.144Z,59.23
2022-07-26T14:19:26.706Z,59.34
2022-07-26T14:21:59.332Z,60.27
2022-07-26T14:24:29.757Z,61.89
2022-07-26T14:26:59.553Z,62.79
2022-07-26T14:29:30.616Z,64.19
2022-07-26T14:31:59.292Z,64.15
2022-07-26T14:34:27.950Z,63.67
2022-07-26T14:36:57.088Z,62.85
2022-07-26T14:39:25.641Z,62.25
2022-07-26T14:41:54.171Z,62.93
2022-07-26T14:44:22.934Z,61.98
2022-07-26T14:46:51.771Z,62.14
2022-07-26T14:49:20.329Z,62.69
2022-07-26T14:51:50.066Z,63.55
2022-07-26T14:54:18.723Z,63.42
2022-07-26T14:56:49.129Z,61.98
2022-07-26T14:59:18.008Z,61.84
2022-07-26T15:01:46.848Z,61.27
2022-07-26T15:04:15.459Z,60.83
2022-07-26T15:06:44.051Z,60.95
2022-07-26T15:09:13.722Z,59.81
2022-07-26T15:11:42.353Z,59.80
2022-07-26T15:14:11.347Z,60.40
2022-07-26T15:16:40.457Z,59.31
2022-07-26T15:19:09.163Z,60.26
2022-07-26T15:21:38.573Z,60.00
2022-07-26T15:24:09.892Z,59.75
2022-07-26T15:26:38.811Z,59.22
2022-07-26T15:29:07.348Z,60.47
2022-07-26T15:31:36.773Z,60.18
2022-07-26T15:34:09.305Z,60.70
2022-07-26T15:36:40.840Z,60.37
2022-07-26T15:39:18.327Z,60.30
2022-07-26T15:41:49.411Z,60.84
2022-07-26T15:44:21.676Z,59.86
2022-07-26T15:46:52.622Z,60.39
2022-07-26T15:49:21.567Z,61.31
2022-07-26T15:51:51.217Z,60.82
2022-07-26T15:54:20.641Z,61.21
2022-07-26T15:56:50.291Z,61.98
2022-07-26T15:59:19.673Z,62.23
2022-07-26T16:01:49.392Z,63.71
2022-07-26T16:04:18.066Z,63.51
2022-07-26T16:06:47.465Z,63.60
2022-07-26T16:09:18.120Z,63.54
2022-07-26T16:11:49.248Z,63.06
2022-07-26T16:14:19.149Z,63.90
2022-07-26T16:16:48.769Z,63.42
2022-07-26T16:19:17.508Z,64.12
2022-07-26T16:21:46.185Z,63.46
2022-07-26T16:24:14.922Z,64.24
2022-07-26T16:26:44.818Z,64.13
2022-07-26T16:29:19.834Z,64.21
2022-07-26T16:31:49.412Z,65.00
2022-07-26T16:34:18.985Z,64.56
2022-07-26T16:36:48.696Z,64.76
2022-07-26T16:39:18.296Z,64.52
2022-07-26T16:41:46.965Z,65.60
2022-07-26T16:44:16.163Z,65.09
2022-07-26T16:46:45.197Z,65.26
2022-07-26T16:49:14.947Z,65.36
2022-07-26T16:51:44.056Z,65.21
2022-07-26T16:54:12.694Z,65.61
2022-07-26T16:56:41.238Z,64.61
2022-07-26T16:59:10.873Z,65.23
2022-07-26T17:01:40.492Z,64.69
2022-07-26T17:04:09.928Z,64.61
2022-07-26T17:06:38.554Z,64.94
2022-07-26T17:09:08.403Z,65.20
2022-07-26T17:11:44.309Z,64.89
2022-07-26T17:14:13.142Z,64.71
2022-07-26T17:16:42.220Z,65.13
2022-07-26T17:19:11.235Z,65.50
2022-07-26T17:21:40.501Z,64.58
2022-07-26T17:24:09.330Z,65.30
2022-07-26T17:26:38.822Z,65.29
2022-07-26T17:29:09.182Z,64.98
2022-07-26T17:31:38.038Z,64.44
2022-07-26T17:34:06.946Z,64.88
2022-07-26T17:36:37.218Z,64.31
2022-07-26T17:39:06.111Z,64.92
2022-07-26T17:41:37.594Z,64.55
2022-07-26T17:44:09.973Z,64.70
2022-07-26T17:46:38.680Z,64.85
2022-07-26T17:49:07.705Z,64.94
2022-07-26T17:51:37.704Z,65.14
2022-07-26T17:54:06.817Z,64.64
2022-07-26T17:56:36.089Z,64.68
2022-07-26T17:59:04.859Z,64.14
2022-07-26T18:01:33.833Z,65.24
2022-07-26T18:04:02.533Z,64.56
2022-07-26T18:06:31.121Z,64.84
2022-07-26T18:08:59.800Z,63.53
2022-07-26T18:11:28.495Z,63.90
2022-07-26T18:13:57.133Z,63.91
2022-07-26T18:16:27.175Z,64.31
2022-07-26T18:18:55.925Z,64.72
2022-07-26T18:21:24.591Z,64.73
2022-07-26T18:24:15.411Z,64.47
2022-07-26T18:26:43.158Z,64.70
2022-07-26T18:29:12.236Z,64.48
2022-07-26T18:31:41.050Z,64.37
2022-07-26T18:34:09.764Z,65.01
2022-07-26T18:36:38.384Z,64.44
2022-07-26T18:39:07.246Z,65.11
2022-07-26T18:41:37.543Z,65.12
2022-07-26T18:44:06.563Z,64.55
2022-07-26T18:46:35.299Z,65.09
2022-07-26T18:49:04.286Z,65.44
2022-07-26T18:51:35.673Z,65.30
2022-07-26T18:54:04.585Z,65.48
2022-07-26T18:56:33.298Z,64.93
2022-07-26T18:59:01.940Z,65.62
2022-07-26T19:01:30.772Z,65.44
2022-07-26T19:04:02.276Z,66.39
2022-07-26T19:06:34.526Z,66.87
2022-07-26T19:09:03.312Z,66.64
2022-07-26T19:11:33.273Z,67.05
2022-07-26T19:14:06.414Z,68.27
2022-07-26T19:16:35.128Z,67.58
2022-07-26T19:19:03.933Z,67.98
2022-07-26T19:21:32.943Z,67.75
2022-07-26T19:24:01.791Z,68.24
2022-07-26T19:26:30.619Z,68.61
2022-07-26T19:28:59.337Z,69.47
2022-07-26T19:31:27.988Z,69.85
2022-07-26T19:33:56.729Z,70.17
2022-07-26T19:36:26.547Z,69.75
2022-07-26T19:38:57.632Z,70.44
2022-07-26T19:41:26.320Z,70.77
2022-07-26T19:43:55.034Z,71.79
2022-07-26T19:46:24.068Z,71.40
2022-07-26T19:48:55.661Z,71.82
2022-07-26T19:51:25.462Z,72.30
2022-07-26T19:53:54.886Z,72.53
2022-07-26T19:56:23.563Z,73.06
2022-07-26T19:58:55.322Z,73.07
2022-07-26T20:01:24.948Z,72.65
2022-07-26T20:03:53.993Z,73.21
2022-07-26T20:06:26.916Z,74.16
2022-07-26T20:08:55.462Z,73.50
2022-07-26T20:11:25.194Z,73.62
2022-07-26T20:13:55.446Z,74.46
2022-07-26T20:16:24.154Z,74.01
2022-07-26T20:18:52.887Z,73.42
2022-07-26T20:21:22.349Z,73.70
2022-07-26T20:23:51.363Z,74.19
2022-07-26T20:26:20.334Z,74.74
2022-07-26T20:28:50.714Z,74.12
2022-07-26T20:31:19.524Z,74.69
2022-07-26T20:33:48.250Z,74.47
2022-07-26T20:36:16.961Z,75.34
2022-07-26T20:38:51.086Z,75.02
2022-07-26T20:41:21.955Z,75.35
2022-07-26T20:43:50.680Z,76.02
2022-07-26T20:46:19.663Z,75.63
2022-07-26T20:48:48.525Z,76.00
2022-07-26T20:51:17.218Z,76.05
2022-07-26T20:53:47.039Z,76.33
2022-07-26T20:56:15.711Z,76.60
2022-07-26T20:58:45.205Z,75.94
2022-07-26T21:01:15.030Z,76.30
2022-07-26T21:03:43.795Z,76.38
2022-07-26T21:06:13.192Z,76.72
2022-07-26T21:08:43.684Z,76.43
2022-07-26T21:11:12.450Z,76.63
2022-07-26T21:13:41.081Z,77.05
2022-07-26T21:16:11.766Z,76.34
2022-07-26T21:18:42.444Z,76.32
2022-07-26T21:21:11.919Z,76.98
2022-07-26T21:23:40.640Z,77.14
2022-07-26T21:26:09.582Z,77.80
2022-07-26T21:28:38.329Z,77.99
2022-07-26T21:31:06.916Z,77.52
2022-07-26T21:33:35.563Z,78.09
2022-07-26T21:36:04.389Z,77.86
2022-07-26T21:38:34.382Z,78.16
2022-07-26T21:41:03.210Z,78.60
2022-07-26T21:43:32.128Z,78.44
2022-07-26T21:46:00.953Z,78.65
2022-07-26T21:48:31.404Z,77.81
2022-07-26T21:51:00.197Z,77.91
2022-07-26T21:53:28.891Z,77.96
2022-07-26T21:56:00.521Z,77.78
2022-07-26T21:58:33.279Z,77.40
2022-07-26T22:01:07.613Z,78.62
2022-07-26T22:03:37.779Z,78.16
2022-07-26T22:06:08.120Z,78.26
2022-07-26T22:08:37.851Z,78.48
2022-07-26T22:11:06.745Z,79.06
2022-07-26T22:13:35.986Z,79.10
2022-07-26T22:16:06.268Z,79.35
2022-07-26T22:18:35.101Z,79.53
2022-07-26T22:21:05.606Z,79.30
2022-07-26T22:23:35.132Z,79.13
2022-07-26T22:26:05.749Z,79.82
2022-07-26T22:28:34.914Z,79.95
2022-07-26T22:31:04.499Z,79.00
2022-07-26T22:33:33.265Z,79.52
2022-07-26T22:36:01.939Z,79.39
2022-07-26T22:38:30.637Z,79.55
2022-07-26T22:41:00.012Z,80.56
2022-07-26T22:43:28.572Z,80.09
2022-07-26T22:45:57.286Z,79.27
2022-07-26T22:48:26.779Z,79.18
2022-07-26T22:50:55.563Z,78.74
2022-07-26T22:53:24.190Z,78.01
2022-07-26T22:55:52.840Z,78.38
2022-07-26T22:58:21.528Z,78.40
2022-07-26T23:00:50.149Z,78.46
2022-07-26T23:03:20.672Z,79.04
2022-07-26T23:05:52.404Z,79.41
2022-07-26T23:08:45.931Z,80.44
2022-07-26T23:11:09.767Z,80.48
2022-07-26T23:13:38.555Z,79.96
2022-07-26T23:16:07.374Z,80.69
2022-07-26T23:18:36.040Z,80.21
2022-07-26T23:21:04.904Z,80.24
2022-07-26T23:23:33.591Z,81.16
2022-07-26T23:26:02.368Z,78.02
2022-07-26T23:28:36.595Z,77.28
2022-07-26T23:31:09.630Z,75.94
2022-07-26T23:33:52.122Z,74.48
2022-07-26T23:36:28.125Z,74.19
2022-07-26T23:38:58.648Z,74.38
2022-07-26T23:41:28.808Z,74.29
2022-07-26T23:43:57.764Z,74.13
2022-07-26T23:46:27.307Z,74.07
2022-07-26T23:48:58.578Z,73.95
2022-07-26T23:51:27.865Z,74.40
2022-07-26T23:53:57.016Z,75.63
2022-07-26T23:56:25.660Z,74.77
2022-07-26T23:58:54.240Z,74.52
